Погода Ошанана 2 недели

Омусати, Намибия

29 февраля-13 марта
  • 29февраля
    Сегодня
    +22°
    +35°
    Ясно и безоблачно
    ВремяПогодаТемператураВлажностьДавлениеВетер, м/сВероятность осадков
    02:00Ясно и безоблачно+23°C61 %672 мм2.9 м/с34 %
    05:00Ясно и безоблачно+23°C70 %671 мм0.9 м/с2 %
    08:00Ясно и безоблачно+24°C62 %672 мм1.5 м/с5 %
    11:00Ясно и безоблачно+29°C40 %674 мм3.5 м/с5 %
    14:00Ясно и безоблачно+33°C29 %673 мм4.5 м/с5 %
    17:00Ясно и безоблачно+34°C24 %671 мм3.9 м/с5 %
    20:00Практически безоблачно+31°C27 %671 мм2.6 м/с5 %
    23:00Практически безоблачно+27°C34 %671 мм3.8 м/с5 %
  • 01марта
    Пятница
    +21°
    +36°
    Ясно и безоблачно
    ВремяПогодаТемператураВлажностьДавлениеВетер, м/сВероятность осадков
    02:00Практически безоблачно+25°C45 %671 мм1.5 м/с5 %
    05:00Практически безоблачно+24°C49 %670 мм2.2 м/с5 %
    08:00Ясно и безоблачно+24°C49 %672 мм3.3 м/с5 %
    11:00Практически безоблачно+32°C32 %674 мм5.0 м/с1 %
    14:00Ясно и безоблачно+34°C23 %672 мм4.1 м/с2 %
    17:00Практически безоблачно+34°C22 %671 мм5.2 м/с4 %
    20:00Облачно с прояснениями+32°C25 %671 мм1.4 м/с5 %
    23:00Небольшая облачность+27°C32 %672 мм3.5 м/с12 %
  • 02марта
    Суббота
    +21°
    +36°
    Ясно и безоблачно
    ВремяПогодаТемператураВлажностьДавлениеВетер, м/сВероятность осадков
    02:00Ясно и безоблачно+24°C46 %671 мм0.7 м/с7 %
    05:00Ясно и безоблачно+23°C49 %671 мм3.0 м/с3 %
    08:00Ясно и безоблачно+23°C52 %672 мм1.4 м/с2 %
    11:00Ясно и безоблачно+30°C34 %674 мм1.6 м/с5 %
    14:00Ясно и безоблачно+34°C22 %672 мм0.3 м/с5 %
    17:00Практически безоблачно+35°C19 %671 мм0.9 м/с5 %
    20:00Практически безоблачно+31°C25 %671 мм4.3 м/с5 %
    23:00Практически безоблачно+29°C25 %671 мм0.8 м/с6 %
  • 03марта
    Воскресенье
    +22°
    +36°
    Практически безоблачно
    ВремяПогодаТемператураВлажностьДавлениеВетер, м/сВероятность осадков
    02:00Практически безоблачно+26°C31 %670 мм3.4 м/с11 %
    05:00Ясно и безоблачно+24°C43 %670 мм2.7 м/с7 %
    08:00Ясно и безоблачно+24°C44 %672 мм2.3 м/с5 %
    11:00Ясно и безоблачно+32°C25 %673 мм2.1 м/с5 %
    14:00Практически безоблачно+35°C19 %672 мм1.8 м/с5 %
    17:00Ясно и безоблачно+35°C18 %671 мм2.0 м/с4 %
    20:00Небольшая облачность+33°C19 %670 мм2.5 м/с5 %
    23:00Небольшая облачность+27°C26 %670 мм1.6 м/с11 %
  • 04марта
    Понедельник
    +21°
    +38°
    Ясно и безоблачно
    ВремяПогодаТемператураВлажностьДавлениеВетер, м/сВероятность осадков
    02:00Ясно и безоблачно+26°C34 %671 мм5.6 м/с6 %
    05:00Ясно и безоблачно+22°C37 %670 мм5.5 м/с3 %
    08:00Ясно и безоблачно+23°C35 %671 мм2.9 м/с5 %
    11:00Ясно и безоблачно+31°C22 %673 мм4.6 м/с5 %
    14:00Ясно и безоблачно+36°C14 %671 мм4.3 м/с5 %
    17:00Небольшая облачность+37°C12 %669 мм3.6 м/с5 %
    20:00Практически безоблачно+33°C14 %668 мм3.4 м/с5 %
    23:00Ясно и безоблачно+28°C22 %669 мм8.8 м/с5 %
Мы используем cookies
Соглашаюсь